Time;durP1;ratioP1;P1;durP2;ratioP2;P2;SDS_P1;SDS_P2;PMS_P1;PMS_P2;Temp;Humidity;BMP_temperature;BMP_pressure;BME280_temperature;BME280_humidity;BME280_pressure;Samples;Min_cycle;Max_cycle;Signal;HPM_P1;HPM_P2
2023/04/28 00:01:14;;;;;;;14.52;5.90;;;;;;;;;;5095480;28;20040;-76
2023/04/28 00:03:40;;;;;;;13.07;6.13;;;;;;;;;;5102756;28;20048;-72
2023/04/28 00:06:05;;;;;;;16.83;6.13;;;;;;;;;;5110594;28;20019;-66
2023/04/28 00:08:31;;;;;;;16.63;6.00;;;;;;;;;;5097988;28;20024;-76
2023/04/28 00:10:56;;;;;;;16.17;6.90;;;;;;;;;;5091347;28;20115;-72
2023/04/28 00:13:22;;;;;;;14.70;6.78;;;;;;;;;;5092869;28;20490;-72
2023/04/28 00:15:51;;;;;;;13.93;6.53;;;;;;;;;;5095007;28;20028;-72
2023/04/28 00:18:18;;;;;;;16.03;6.13;;;;;;;;;;5107836;28;20056;-75
2023/04/28 00:20:43;;;;;;;17.20;5.97;;;;;;;;;;5105498;28;20036;-76
2023/04/28 00:23:09;;;;;;;14.50;6.13;;;;;;;;;;5095927;28;20023;-75
2023/04/28 00:25:34;;;;;;;15.52;6.60;;;;;;;;;;5100433;28;20027;-75
2023/04/28 00:28:00;;;;;;;23.60;7.60;;;;;;;;;;5105796;28;20093;-73
2023/04/28 00:30:26;;;;;;;31.95;10.68;;;;;;;;;;5101711;28;20040;-76
2023/04/28 00:32:51;;;;;;;24.40;9.23;;;;;;;;;;5107468;28;20051;-68
2023/04/28 00:35:17;;;;;;;29.08;9.90;;;;;;;;;;5100772;28;20090;-76
2023/04/28 00:37:43;;;;;;;30.15;11.05;;;;;;;;;;5105297;28;20052;-77
2023/04/28 00:40:08;;;;;;;45.97;13.02;;;;;;;;;;5100068;28;20038;-67
2023/04/28 00:42:34;;;;;;;39.40;12.15;;;;;;;;;;5092099;28;20052;-69
2023/04/28 00:45:04;;;;;;;36.20;11.65;;;;;;;;;;5090177;28;20037;-77
2023/04/28 00:47:31;;;;;;;34.53;12.57;;;;;;;;;;5090041;28;20110;-74
2023/04/28 00:49:58;;;;;;;37.85;12.82;;;;;;;;;;5091690;28;20418;-71
2023/04/28 00:52:23;;;;;;;44.58;12.95;;;;;;;;;;5110024;28;20080;-73
2023/04/28 00:54:49;;;;;;;37.70;11.88;;;;;;;;;;5111562;28;20470;-73
2023/04/28 00:57:15;;;;;;;40.92;12.93;;;;;;;;;;5111254;28;20415;-70
2023/04/28 00:59:40;;;;;;;42.03;11.88;;;;;;;;;;5107791;28;20110;-68
2023/04/28 01:02:06;;;;;;;43.67;12.45;;;;;;;;;;5098298;28;20058;-66
2023/04/28 01:04:32;;;;;;;39.47;12.52;;;;;;;;;;5092170;28;20119;-73
2023/04/28 01:06:59;;;;;;;40.08;12.52;;;;;;;;;;5093020;28;20028;-72
2023/04/28 01:09:25;;;;;;;33.78;12.45;;;;;;;;;;5091741;28;20032;-72
2023/04/28 01:11:50;;;;;;;38.92;13.18;;;;;;;;;;5102929;28;20023;-76
2023/04/28 01:14:16;;;;;;;39.70;11.93;;;;;;;;;;5114270;28;20038;-74
2023/04/28 01:16:42;;;;;;;34.30;12.05;;;;;;;;;;5114317;28;20076;-71
2023/04/28 01:19:09;;;;;;;36.42;12.48;;;;;;;;;;5114073;28;20027;-74
2023/04/28 01:21:34;;;;;;;36.78;12.40;;;;;;;;;;5109199;28;20035;-74
2023/04/28 01:24:00;;;;;;;34.90;12.38;;;;;;;;;;5111871;28;20023;-73
2023/04/28 01:26:26;;;;;;;35.03;12.23;;;;;;;;;;5111503;28;20027;-70
2023/04/28 01:28:51;;;;;;;32.17;12.10;;;;;;;;;;5112639;28;20023;-73
2023/04/28 01:31:17;;;;;;;37.35;10.82;;;;;;;;;;5112852;28;20108;-71
2023/04/28 01:33:42;;;;;;;24.10;9.27;;;;;;;;;;5112610;28;20016;-72
2023/04/28 01:36:08;;;;;;;23.52;9.07;;;;;;;;;;5112440;28;20035;-76
2023/04/28 01:38:34;;;;;;;20.17;8.02;;;;;;;;;;5094488;28;20484;-75
2023/04/28 01:41:01;;;;;;;17.58;7.57;;;;;;;;;;5112666;28;20098;-76
2023/04/28 01:43:27;;;;;;;15.82;7.57;;;;;;;;;;5112361;28;20424;-75
2023/04/28 01:45:52;;;;;;;21.23;7.20;;;;;;;;;;5112444;28;20026;-72
2023/04/28 01:48:17;;;;;;;14.68;6.20;;;;;;;;;;5112523;28;20015;-75
2023/04/28 01:50:43;;;;;;;14.20;6.47;;;;;;;;;;5112478;28;20023;-72
2023/04/28 01:53:08;;;;;;;19.38;5.95;;;;;;;;;;5112274;28;20024;-75
2023/04/28 01:55:34;;;;;;;14.10;6.38;;;;;;;;;;5112440;28;20420;-72
2023/04/28 01:57:59;;;;;;;13.35;6.57;;;;;;;;;;5112016;28;20477;-70
2023/04/28 02:00:26;;;;;;;15.10;6.90;;;;;;;;;;5112286;28;20039;-69
2023/04/28 02:02:51;;;;;;;12.48;6.65;;;;;;;;;;5112263;28;20020;-72
2023/04/28 02:05:17;;;;;;;10.95;5.68;;;;;;;;;;5112011;28;20024;-70
2023/04/28 02:07:42;;;;;;;12.98;6.35;;;;;;;;;;5112124;28;20019;-75
2023/04/28 02:10:08;;;;;;;12.77;6.00;;;;;;;;;;5112122;28;20023;-72
2023/04/28 02:12:33;;;;;;;12.18;6.07;;;;;;;;;;5111827;28;20016;-76
2023/04/28 02:15:00;;;;;;;12.85;6.82;;;;;;;;;;5092633;28;20030;-75
2023/04/28 02:17:25;;;;;;;12.85;6.72;;;;;;;;;;5112102;28;20047;-75
2023/04/28 02:19:55;;;;;;;13.43;6.60;;;;;;;;;;5112096;28;20048;-76
2023/04/28 02:22:21;;;;;;;17.88;6.45;;;;;;;;;;5112120;28;20069;-72
2023/04/28 02:24:47;;;;;;;15.15;7.07;;;;;;;;;;5111965;28;20027;-75
2023/04/28 02:27:12;;;;;;;12.05;6.53;;;;;;;;;;5111768;28;20416;-76
2023/04/28 02:29:38;;;;;;;11.90;6.85;;;;;;;;;;5111796;28;20090;-76
2023/04/28 02:32:03;;;;;;;14.43;7.10;;;;;;;;;;5111791;28;20031;-76
2023/04/28 02:34:29;;;;;;;14.57;6.68;;;;;;;;;;5111594;28;20098;-73
2023/04/28 02:36:55;;;;;;;14.82;6.70;;;;;;;;;;5111714;28;20063;-75
2023/04/28 02:39:21;;;;;;;15.38;6.80;;;;;;;;;;5111890;28;20386;-74
2023/04/28 02:41:47;;;;;;;13.48;7.25;;;;;;;;;;5111319;28;20020;-70
2023/04/28 02:44:12;;;;;;;15.20;7.13;;;;;;;;;;5111672;28;20050;-74
2023/04/28 02:46:38;;;;;;;14.65;7.95;;;;;;;;;;5111776;28;20023;-67
2023/04/28 02:49:03;;;;;;;12.63;7.47;;;;;;;;;;5111613;28;20020;-76
2023/04/28 02:51:28;;;;;;;15.75;7.47;;;;;;;;;;5111843;28;20071;-75
2023/04/28 02:53:54;;;;;;;12.95;7.05;;;;;;;;;;5111500;28;20484;-69
2023/04/28 02:56:20;;;;;;;14.00;6.90;;;;;;;;;;5111380;28;20038;-73
2023/04/28 02:58:45;;;;;;;17.60;8.30;;;;;;;;;;5111843;28;20043;-71
2023/04/28 03:01:10;;;;;;;22.33;11.73;;;;;;;;;;5111749;28;20128;-75
2023/04/28 03:03:36;;;;;;;20.55;10.88;;;;;;;;;;5111233;28;20020;-69
2023/04/28 03:06:01;;;;;;;25.75;10.73;;;;;;;;;;5111550;28;20092;-76
2023/04/28 03:08:27;;;;;;;19.25;10.02;;;;;;;;;;5111440;28;20020;-75
2023/04/28 03:10:52;;;;;;;16.77;9.48;;;;;;;;;;5111342;28;20098;-75
2023/04/28 03:13:17;;;;;;;17.17;9.02;;;;;;;;;;5111397;28;20096;-68
2023/04/28 03:15:43;;;;;;;15.45;8.15;;;;;;;;;;5111483;28;20047;-75
2023/04/28 03:18:08;;;;;;;19.77;8.35;;;;;;;;;;5111332;28;20314;-73
2023/04/28 03:20:34;;;;;;;16.63;8.77;;;;;;;;;;5110988;28;20823;-75
2023/04/28 03:23:01;;;;;;;17.05;8.10;;;;;;;;;;5111225;28;20030;-74
2023/04/28 03:25:26;;;;;;;14.05;7.35;;;;;;;;;;5113675;28;20020;-74
2023/04/28 03:27:51;;;;;;;15.90;8.25;;;;;;;;;;5115129;28;20022;-71
2023/04/28 03:30:17;;;;;;;15.48;8.30;;;;;;;;;;5115124;28;20472;-75
2023/04/28 03:32:42;;;;;;;29.92;9.57;;;;;;;;;;5114891;28;20073;-75
2023/04/28 03:35:08;;;;;;;20.08;8.20;;;;;;;;;;5114995;28;20077;-74
2023/04/28 03:37:33;;;;;;;19.02;8.68;;;;;;;;;;5114742;28;20395;-72
2023/04/28 03:39:59;;;;;;;23.25;8.73;;;;;;;;;;5114767;28;20061;-70
2023/04/28 03:42:24;;;;;;;22.35;8.60;;;;;;;;;;5095749;28;20474;-73
2023/04/28 03:44:50;;;;;;;16.23;7.70;;;;;;;;;;5114870;28;20039;-66
2023/04/28 03:47:15;;;;;;;20.25;7.40;;;;;;;;;;5114876;28;20393;-70
2023/04/28 03:49:41;;;;;;;15.70;7.75;;;;;;;;;;5114716;28;20024;-73
2023/04/28 03:52:06;;;;;;;15.85;8.02;;;;;;;;;;5114679;28;20015;-67
2023/04/28 03:54:31;;;;;;;15.70;8.23;;;;;;;;;;5114271;28;20015;-71
2023/04/28 03:56:57;;;;;;;34.25;13.00;;;;;;;;;;5115742;28;20036;-71
2023/04/28 03:59:23;;;;;;;25.52;10.98;;;;;;;;;;5116000;28;20028;-71
2023/04/28 04:01:48;;;;;;;23.50;10.10;;;;;;;;;;5115873;28;20091;-73
2023/04/28 04:04:14;;;;;;;24.95;10.38;;;;;;;;;;5115870;28;20027;-75
2023/04/28 04:06:39;;;;;;;21.20;10.52;;;;;;;;;;5115776;28;20051;-71
2023/04/28 04:09:05;;;;;;;24.88;11.60;;;;;;;;;;5115557;28;20394;-74
2023/04/28 04:11:30;;;;;;;29.35;11.98;;;;;;;;;;5097578;28;20038;-75
2023/04/28 04:13:56;;;;;;;25.42;11.57;;;;;;;;;;5115585;28;20020;-72
2023/04/28 04:16:21;;;;;;;27.20;12.05;;;;;;;;;;5115700;28;20051;-75
2023/04/28 04:18:47;;;;;;;24.02;11.15;;;;;;;;;;5115612;28;20027;-71
2023/04/28 04:21:12;;;;;;;23.90;10.98;;;;;;;;;;5115267;28;20106;-74
2023/04/28 04:23:38;;;;;;;21.55;10.88;;;;;;;;;;5115235;28;20030;-74
2023/04/28 04:26:03;;;;;;;23.40;11.13;;;;;;;;;;5115483;28;20036;-71
2023/04/28 04:28:28;;;;;;;22.15;11.45;;;;;;;;;;5105692;28;20042;-74
2023/04/28 04:30:54;;;;;;;24.13;11.52;;;;;;;;;;5103417;28;20438;-73
2023/04/28 04:33:19;;;;;;;26.67;12.23;;;;;;;;;;5111480;28;20027;-74
2023/04/28 04:35:45;;;;;;;21.67;10.30;;;;;;;;;;5114157;28;20393;-72
2023/04/28 04:38:10;;;;;;;14.20;7.43;;;;;;;;;;5114669;28;20046;-73
2023/04/28 04:40:36;;;;;;;15.02;7.15;;;;;;;;;;5115249;28;20038;-72
2023/04/28 04:43:01;;;;;;;12.20;5.82;;;;;;;;;;5114519;28;20015;-72
2023/04/28 04:45:27;;;;;;;13.60;6.72;;;;;;;;;;5115074;28;20038;-75
2023/04/28 04:47:52;;;;;;;14.23;7.32;;;;;;;;;;5115176;28;20036;-74
2023/04/28 04:50:17;;;;;;;11.02;5.95;;;;;;;;;;5114886;28;20110;-71
2023/04/28 04:52:43;;;;;;;12.70;6.70;;;;;;;;;;5114837;28;20105;-74
2023/04/28 04:55:10;;;;;;;16.40;7.20;;;;;;;;;;5114973;28;20087;-75
2023/04/28 04:57:36;;;;;;;12.80;6.47;;;;;;;;;;5114832;28;20047;-74
2023/04/28 05:00:03;;;;;;;12.13;6.28;;;;;;;;;;5114777;28;20027;-74
2023/04/28 05:02:28;;;;;;;13.85;6.60;;;;;;;;;;5114618;28;20384;-74
2023/04/28 05:04:54;;;;;;;13.43;6.75;;;;;;;;;;5114382;28;20023;-74
2023/04/28 05:07:19;;;;;;;10.55;6.20;;;;;;;;;;5114493;28;20470;-75
2023/04/28 05:09:45;;;;;;;13.07;6.65;;;;;;;;;;5096162;28;20466;-74
2023/04/28 05:12:10;;;;;;;12.75;5.93;;;;;;;;;;5114250;28;20420;-71
2023/04/28 05:14:36;;;;;;;19.38;6.95;;;;;;;;;;5114190;28;20074;-74
2023/04/28 05:17:01;;;;;;;10.32;6.30;;;;;;;;;;5114412;28;20523;-74
2023/04/28 05:19:27;;;;;;;11.35;5.97;;;;;;;;;;5114294;28;20035;-75
2023/04/28 05:21:53;;;;;;;13.20;6.50;;;;;;;;;;5113761;28;20028;-74
2023/04/28 05:24:22;;;;;;;13.50;5.80;;;;;;;;;;5114206;28;20027;-75
2023/04/28 05:26:49;;;;;;;8.85;4.22;;;;;;;;;;5113928;28;20481;-72
2023/04/28 05:29:14;;;;;;;11.40;5.20;;;;;;;;;;5113957;28;20043;-72
2023/04/28 05:31:40;;;;;;;10.68;4.80;;;;;;;;;;5113961;28;20023;-74
2023/04/28 05:34:05;;;;;;;9.52;4.50;;;;;;;;;;5114133;28;20092;-75
2023/04/28 05:36:31;;;;;;;10.85;4.55;;;;;;;;;;5113459;28;20409;-76
2023/04/28 05:38:56;;;;;;;8.30;4.47;;;;;;;;;;5114081;28;20023;-75
2023/04/28 05:41:22;;;;;;;8.02;4.15;;;;;;;;;;5113937;28;20034;-76
2023/04/28 05:43:49;;;;;;;11.32;4.15;;;;;;;;;;5113924;28;20052;-76
2023/04/28 05:46:16;;;;;;;16.38;5.03;;;;;;;;;;5113960;28;20022;-73
2023/04/28 05:48:41;;;;;;;8.80;4.60;;;;;;;;;;5113341;28;20119;-75
2023/04/28 05:51:06;;;;;;;8.85;3.53;;;;;;;;;;5113400;28;20106;-75
2023/04/28 05:53:32;;;;;;;9.38;4.13;;;;;;;;;;5113798;28;20450;-75
2023/04/28 05:55:57;;;;;;;14.50;3.92;;;;;;;;;;5113785;28;20530;-74
2023/04/28 05:58:23;;;;;;;10.57;3.70;;;;;;;;;;5113487;28;20495;-75
2023/04/28 06:00:48;;;;;;;6.93;3.47;;;;;;;;;;5113426;28;20493;-74
2023/04/28 06:03:17;;;;;;;8.00;3.47;;;;;;;;;;5113637;28;20055;-76
2023/04/28 06:05:43;;;;;;;4.53;2.92;;;;;;;;;;5113561;28;20047;-74
2023/04/28 06:08:08;;;;;;;7.38;3.03;;;;;;;;;;5113390;28;20441;-72
2023/04/28 06:10:34;;;;;;;6.85;3.00;;;;;;;;;;5113055;28;20111;-75
2023/04/28 06:13:00;;;;;;;7.95;3.00;;;;;;;;;;5113531;28;20111;-68
2023/04/28 06:15:25;;;;;;;5.80;3.13;;;;;;;;;;5093579;28;20031;-66
2023/04/28 06:17:51;;;;;;;6.70;3.42;;;;;;;;;;5092786;28;20027;-70
2023/04/28 06:20:17;;;;;;;6.30;2.90;;;;;;;;;;5092925;28;20471;-71
2023/04/28 06:22:42;;;;;;;4.47;2.60;;;;;;;;;;5074793;28;20028;-73
2023/04/28 06:25:08;;;;;;;4.03;1.92;;;;;;;;;;5092976;28;20027;-71
2023/04/28 06:27:34;;;;;;;8.48;2.58;;;;;;;;;;5092356;28;20423;-68
2023/04/28 06:29:59;;;;;;;4.93;2.85;;;;;;;;;;5092595;28;20085;-70
2023/04/28 06:32:25;;;;;;;4.80;2.28;;;;;;;;;;5101369;28;20027;-73
2023/04/28 06:34:50;;;;;;;6.80;3.22;;;;;;;;;;5112922;28;20119;-69
2023/04/28 06:37:16;;;;;;;5.65;2.90;;;;;;;;;;5112743;28;20063;-70
2023/04/28 06:39:41;;;;;;;6.50;2.70;;;;;;;;;;5113046;28;20032;-65
2023/04/28 06:42:07;;;;;;;6.47;3.38;;;;;;;;;;5113087;28;20513;-65
2023/04/28 06:44:32;;;;;;;8.90;2.90;;;;;;;;;;5112915;28;20466;-67
2023/04/28 06:46:58;;;;;;;6.15;2.58;;;;;;;;;;5112600;28;20024;-70
2023/04/28 06:49:24;;;;;;;6.22;2.72;;;;;;;;;;5113100;28;20100;-76
2023/04/28 06:51:49;;;;;;;4.55;2.78;;;;;;;;;;5112925;28;20461;-71
2023/04/28 06:54:15;;;;;;;9.32;3.22;;;;;;;;;;5112921;28;20020;-65
2023/04/28 06:56:41;;;;;;;4.82;2.70;;;;;;;;;;5113038;28;20028;-71
2023/04/28 06:59:07;;;;;;;7.63;3.17;;;;;;;;;;5113087;28;20095;-71
2023/04/28 07:01:32;;;;;;;4.45;2.15;;;;;;;;;;5117341;28;20077;-68
2023/04/28 07:03:58;;;;;;;6.05;2.60;;;;;;;;;;5116839;28;20032;-73
2023/04/28 07:06:23;;;;;;;7.53;2.72;;;;;;;;;;5116912;28;20034;-68
2023/04/28 07:08:49;;;;;;;4.80;2.28;;;;;;;;;;5116802;28;20534;-70
2023/04/28 07:11:15;;;;;;;4.82;2.28;;;;;;;;;;5116462;28;20067;-71
2023/04/28 07:13:40;;;;;;;8.60;2.72;;;;;;;;;;5116792;28;20050;-73
2023/04/28 07:16:06;;;;;;;4.78;2.50;;;;;;;;;;5116828;28;20517;-72
2023/04/28 07:18:32;;;;;;;3.92;2.08;;;;;;;;;;5116823;28;20032;-64
2023/04/28 07:20:57;;;;;;;5.35;2.28;;;;;;;;;;5116771;28;20060;-68
2023/04/28 07:23:23;;;;;;;6.28;1.95;;;;;;;;;;5116798;28;20058;-75
2023/04/28 07:25:48;;;;;;;3.42;1.65;;;;;;;;;;5116668;28;20016;-72
2023/04/28 07:28:14;;;;;;;5.40;2.08;;;;;;;;;;5116351;28;20069;-72
2023/04/28 07:30:39;;;;;;;4.53;1.70;;;;;;;;;;5116288;28;20027;-74
2023/04/28 07:33:04;;;;;;;8.65;1.90;;;;;;;;;;5097782;28;20050;-72
2023/04/28 07:35:30;;;;;;;6.88;2.20;;;;;;;;;;5115636;28;20151;-73
2023/04/28 07:37:56;;;;;;;3.75;1.90;;;;;;;;;;5116203;28;20055;-76
2023/04/28 07:40:22;;;;;;;6.78;1.80;;;;;;;;;;5116434;28;20035;-77
2023/04/28 07:42:48;;;;;;;7.85;2.55;;;;;;;;;;5116016;28;20019;-75
2023/04/28 07:45:15;;;;;;;4.63;1.83;;;;;;;;;;5116258;28;20019;-76
2023/04/28 07:47:41;;;;;;;6.45;1.92;;;;;;;;;;5116178;28;20043;-77
2023/04/28 07:50:07;;;;;;;5.00;1.77;;;;;;;;;;5115845;28;20035;-74
2023/04/28 07:52:33;;;;;;;7.20;2.38;;;;;;;;;;5097793;28;20118;-75
2023/04/28 07:54:59;;;;;;;5.75;1.70;;;;;;;;;;5116000;28;20019;-78
2023/04/28 07:57:25;;;;;;;2.40;1.38;;;;;;;;;;5116114;28;20042;-78
2023/04/28 07:59:51;;;;;;;4.05;1.83;;;;;;;;;;5116189;28;20382;-74
2023/04/28 08:02:18;;;;;;;5.85;2.22;;;;;;;;;;5115993;28;20028;-75
2023/04/28 08:04:43;;;;;;;5.00;1.70;;;;;;;;;;5115995;28;20084;-76
2023/04/28 08:07:09;;;;;;;4.15;1.80;;;;;;;;;;5115806;28;20028;-74
2023/04/28 08:09:35;;;;;;;3.90;2.10;;;;;;;;;;5115361;28;20035;-74
2023/04/28 08:12:01;;;;;;;4.82;2.15;;;;;;;;;;5113253;28;20031;-71
2023/04/28 08:14:26;;;;;;;2.78;1.52;;;;;;;;;;5114223;28;20428;-74
2023/04/28 08:16:52;;;;;;;4.25;1.80;;;;;;;;;;5112838;28;20024;-72
2023/04/28 08:19:18;;;;;;;3.88;1.63;;;;;;;;;;5115255;28;20046;-76
2023/04/28 08:21:43;;;;;;;4.88;2.17;;;;;;;;;;5114947;28;20028;-77
2023/04/28 08:24:09;;;;;;;5.25;1.80;;;;;;;;;;5115077;28;20067;-77
2023/04/28 08:26:36;;;;;;;4.30;1.98;;;;;;;;;;5114780;28;20020;-77
2023/04/28 08:29:02;;;;;;;4.40;2.08;;;;;;;;;;5114491;28;20031;-77
2023/04/28 08:31:27;;;;;;;4.00;2.40;;;;;;;;;;5115050;28;20027;-77
2023/04/28 08:33:53;;;;;;;3.25;2.08;;;;;;;;;;5115141;28;20074;-77
2023/04/28 08:36:18;;;;;;;4.05;2.20;;;;;;;;;;5115010;28;20039;-77
2023/04/28 08:38:44;;;;;;;4.18;2.20;;;;;;;;;;5115452;28;20423;-76
2023/04/28 08:41:14;;;;;;;3.55;1.65;;;;;;;;;;5115495;28;20073;-75
2023/04/28 08:43:41;;;;;;;3.80;1.52;;;;;;;;;;5114924;28;20074;-74
2023/04/28 08:46:08;;;;;;;3.53;1.65;;;;;;;;;;5115307;28;20073;-74
2023/04/28 08:48:42;;;;;;;2.63;1.30;;;;;;;;;;5114983;28;20055;-77
2023/04/28 08:51:08;;;;;;;3.15;1.55;;;;;;;;;;5115004;28;20027;-76
2023/04/28 08:53:38;;;;;;;2.60;1.25;;;;;;;;;;5115036;28;20046;-76
2023/04/28 08:56:06;;;;;;;3.05;1.60;;;;;;;;;;5115052;28;20066;-76
2023/04/28 08:58:34;;;;;;;5.15;1.52;;;;;;;;;;5114835;28;20432;-76
2023/04/28 09:01:01;;;;;;;1.70;1.30;;;;;;;;;;5112175;28;20024;-76
2023/04/28 09:03:27;;;;;;;3.80;1.80;;;;;;;;;;5114468;28;20504;-73
2023/04/28 09:05:52;;;;;;;4.07;1.70;;;;;;;;;;5114188;28;20020;-71
2023/04/28 09:08:18;;;;;;;4.13;1.70;;;;;;;;;;5114096;28;20405;-77
2023/04/28 09:10:43;;;;;;;2.78;1.30;;;;;;;;;;5114218;28;20058;-75
2023/04/28 09:13:08;;;;;;;4.72;1.80;;;;;;;;;;5114071;28;20043;-77
2023/04/28 09:15:40;;;;;;;5.18;1.50;;;;;;;;;;5114386;28;20023;-78
2023/04/28 09:18:06;;;;;;;3.60;1.50;;;;;;;;;;5114232;28;20020;-78
2023/04/28 09:20:34;;;;;;;2.72;1.50;;;;;;;;;;5114122;28;20470;-77
2023/04/28 09:23:19;;;;;;;2.38;1.55;;;;;;;;;;5096666;28;20102;-78
2023/04/28 09:26:02;;;;;;;3.15;1.60;;;;;;;;;;5113810;28;20028;-77
2023/04/28 09:28:28;;;;;;;3.38;2.38;;;;;;;;;;5113722;28;20016;-78
2023/04/28 09:30:54;;;;;;;3.05;1.40;;;;;;;;;;5113566;28;20035;-75
2023/04/28 09:33:20;;;;;;;2.80;1.58;;;;;;;;;;5113271;28;20621;-76
2023/04/28 09:35:47;;;;;;;4.80;2.00;;;;;;;;;;5113807;28;20019;-75
2023/04/28 09:38:16;;;;;;;5.43;1.67;;;;;;;;;;5113483;28;20490;-73
2023/04/28 09:40:59;;;;;;;2.70;1.80;;;;;;;;;;5113804;28;20039;-74
2023/04/28 09:43:32;;;;;;;5.07;1.67;;;;;;;;;;5113714;28;20066;-76
2023/04/28 09:46:03;;;;;;;4.70;1.80;;;;;;;;;;5108138;28;20043;-74
2023/04/28 09:48:36;;;;;;;4.38;2.10;;;;;;;;;;5097976;28;20074;-70
2023/04/28 09:51:05;;;;;;;6.13;2.03;;;;;;;;;;5093630;28;20521;-72
2023/04/28 09:53:32;;;;;;;3.95;1.70;;;;;;;;;;5102665;28;20497;-72
2023/04/28 09:56:00;;;;;;;4.22;1.75;;;;;;;;;;5106646;28;20028;-73
2023/04/28 09:58:27;;;;;;;2.60;1.50;;;;;;;;;;5113347;28;20027;-70
2023/04/28 10:00:55;;;;;;;7.00;1.95;;;;;;;;;;5113570;28;20084;-65
2023/04/28 10:03:23;;;;;;;2.03;1.30;;;;;;;;;;5110660;28;20478;-75
2023/04/28 10:05:51;;;;;;;2.72;1.77;;;;;;;;;;5111758;28;20059;-69
2023/04/28 10:08:18;;;;;;;4.72;1.75;;;;;;;;;;5093501;28;20031;-74
2023/04/28 10:10:47;;;;;;;3.78;1.80;;;;;;;;;;5113075;28;20481;-73
2023/04/28 10:13:15;;;;;;;10.57;1.60;;;;;;;;;;5111698;28;20036;-73
2023/04/28 10:15:41;;;;;;;2.15;1.40;;;;;;;;;;5111374;28;20016;-71
2023/04/28 10:18:08;;;;;;;3.80;1.50;;;;;;;;;;5112613;28;20027;-75
2023/04/28 10:20:34;;;;;;;5.18;1.90;;;;;;;;;;5112735;28;20072;-70
2023/04/28 10:23:32;;;;;;;2.40;1.50;;;;;;;;;;5112754;28;20072;-75
2023/04/28 10:25:58;;;;;;;2.05;1.30;;;;;;;;;;5112596;28;20065;-72
2023/04/28 10:28:25;;;;;;;4.38;1.58;;;;;;;;;;5112687;28;20019;-73
2023/04/28 10:31:10;;;;;;;3.13;1.70;;;;;;;;;;5095152;28;20119;-75
2023/04/28 10:33:37;;;;;;;4.03;1.40;;;;;;;;;;5112864;28;20401;-75
2023/04/28 10:36:03;;;;;;;3.17;1.58;;;;;;;;;;5112834;28;20019;-74
2023/04/28 10:38:28;;;;;;;4.80;1.70;;;;;;;;;;5113074;28;20497;-75
2023/04/28 10:40:54;;;;;;;2.35;1.50;;;;;;;;;;5112842;28;20027;-74
2023/04/28 10:43:31;;;;;;;4.65;1.80;;;;;;;;;;5112823;28;20032;-75
2023/04/28 10:46:00;;;;;;;3.60;1.70;;;;;;;;;;5112976;28;20315;-75
2023/04/28 10:48:25;;;;;;;2.63;1.70;;;;;;;;;;5112854;28;20466;-75
2023/04/28 10:51:03;;;;;;;3.35;1.65;;;;;;;;;;5112699;28;20023;-71
2023/04/28 10:53:51;;;;;;;5.28;1.77;;;;;;;;;;5112689;28;20023;-70
2023/04/28 10:56:26;;;;;;;5.40;1.50;;;;;;;;;;5101901;28;20040;-75
2023/04/28 10:58:52;;;;;;;4.63;1.60;;;;;;;;;;5113083;28;20036;-76
2023/04/28 11:01:17;;;;;;;2.83;1.30;;;;;;;;;;5112840;28;20474;-75
2023/04/28 11:03:46;;;;;;;3.33;1.50;;;;;;;;;;5112889;28;20034;-74
2023/04/28 11:06:36;;;;;;;3.90;1.70;;;;;;;;;;5113087;28;20024;-74
2023/04/28 11:09:13;;;;;;;4.05;1.77;;;;;;;;;;5112543;28;20028;-76
2023/04/28 11:11:59;;;;;;;2.65;1.40;;;;;;;;;;5112847;28;20030;-74
2023/04/28 11:14:24;;;;;;;3.05;1.02;;;;;;;;;;5112486;28;20030;-75
2023/04/28 11:16:58;;;;;;;2.67;1.40;;;;;;;;;;5094432;28;20019;-76
2023/04/28 11:19:27;;;;;;;4.15;1.65;;;;;;;;;;5112823;28;20335;-76
2023/04/28 11:21:55;;;;;;;3.70;2.08;;;;;;;;;;5112689;28;20225;-76
2023/04/28 11:24:21;;;;;;;4.63;1.70;;;;;;;;;;5112432;28;20032;-74
2023/04/28 11:26:47;;;;;;;6.40;2.00;;;;;;;;;;5112759;28;20023;-72
2023/04/28 11:29:14;;;;;;;5.07;1.88;;;;;;;;;;5112423;28;20024;-72
2023/04/28 11:31:41;;;;;;;4.80;1.30;;;;;;;;;;5112501;28;20019;-69
2023/04/28 11:34:11;;;;;;;6.30;1.67;;;;;;;;;;5112221;28;20040;-75
2023/04/28 11:36:38;;;;;;;5.47;1.88;;;;;;;;;;5112248;28;20134;-75
2023/04/28 11:39:08;;;;;;;4.22;1.80;;;;;;;;;;5112291;28;20085;-74
2023/04/28 11:41:35;;;;;;;4.60;2.03;;;;;;;;;;5112653;28;20024;-72
2023/04/28 11:44:08;;;;;;;3.30;1.40;;;;;;;;;;5112326;28;20020;-76
2023/04/28 11:46:34;;;;;;;5.35;1.70;;;;;;;;;;5114924;28;20027;-75
2023/04/28 11:49:05;;;;;;;3.65;1.67;;;;;;;;;;5115723;28;20069;-73
2023/04/28 11:51:33;;;;;;;3.03;1.67;;;;;;;;;;5115930;28;20588;-75
2023/04/28 11:53:59;;;;;;;3.42;1.20;;;;;;;;;;5116266;28;20027;-72
2023/04/28 11:56:25;;;;;;;2.53;1.30;;;;;;;;;;5115761;28;20084;-75
2023/04/28 11:59:01;;;;;;;3.65;1.52;;;;;;;;;;5116266;28;20474;-74
2023/04/28 12:01:27;;;;;;;4.15;1.60;;;;;;;;;;5115887;28;20031;-73
2023/04/28 12:03:54;;;;;;;4.63;1.67;;;;;;;;;;5115804;28;20028;-74
2023/04/28 12:06:19;;;;;;;2.80;1.33;;;;;;;;;;5115710;28;20492;-71
2023/04/28 12:08:45;;;;;;;6.75;2.08;;;;;;;;;;5115799;28;20028;-70
2023/04/28 12:11:12;;;;;;;3.28;1.50;;;;;;;;;;5115760;28;20466;-71
2023/04/28 12:13:38;;;;;;;6.07;1.95;;;;;;;;;;5115178;28;20055;-70
2023/04/28 12:16:05;;;;;;;4.70;1.58;;;;;;;;;;5115491;28;20024;-70
2023/04/28 12:18:37;;;;;;;2.63;1.50;;;;;;;;;;5115678;28;20115;-68
2023/04/28 12:21:04;;;;;;;6.47;1.60;;;;;;;;;;5115033;28;20385;-68
2023/04/28 12:23:33;;;;;;;7.32;1.60;;;;;;;;;;5115413;28;20489;-71
2023/04/28 12:25:59;;;;;;;4.80;1.60;;;;;;;;;;5115395;28;20080;-72
2023/04/28 12:28:38;;;;;;;3.08;1.70;;;;;;;;;;5115586;28;20016;-71
2023/04/28 12:31:05;;;;;;;3.72;1.33;;;;;;;;;;5115772;28;20020;-73
2023/04/28 12:33:36;;;;;;;3.55;1.85;;;;;;;;;;5114866;28;20036;-75
2023/04/28 12:36:02;;;;;;;;;;;;;;;;;;5115343;28;20031;-71
2023/04/28 12:38:27;;;;;;;6.43;1.67;;;;;;;;;;5114610;28;19994;-71
2023/04/28 12:40:53;;;;;;;4.72;1.42;;;;;;;;;;5113546;28;20106;-75
2023/04/28 12:43:21;;;;;;;4.03;1.98;;;;;;;;;;5114531;28;20024;-70
2023/04/28 12:45:47;;;;;;;3.08;1.83;;;;;;;;;;5114595;27;20043;-72
2023/04/28 12:48:13;;;;;;;6.55;1.85;;;;;;;;;;5114681;28;20027;-73
2023/04/28 12:50:38;;;;;;;5.13;2.00;;;;;;;;;;5111345;28;20031;-77
2023/04/28 12:53:04;;;;;;;5.45;2.20;;;;;;;;;;5113455;28;20024;-74
2023/04/28 12:55:29;;;;;;;5.43;2.13;;;;;;;;;;5113533;28;20027;-73
2023/04/28 12:57:55;;;;;;;4.93;2.10;;;;;;;;;;5108590;28;20027;-75
2023/04/28 13:00:22;;;;;;;6.18;2.25;;;;;;;;;;5113266;28;20046;-71
2023/04/28 13:02:48;;;;;;;5.97;2.10;;;;;;;;;;5113967;28;20034;-74
2023/04/28 13:05:14;;;;;;;4.25;2.03;;;;;;;;;;5113821;28;20427;-65
2023/04/28 13:07:39;;;;;;;4.03;2.00;;;;;;;;;;5114343;28;20015;-70
2023/04/28 13:10:06;;;;;;;5.97;1.92;;;;;;;;;;5114566;28;20027;-68
2023/04/28 13:12:32;;;;;;;5.10;2.30;;;;;;;;;;5114181;28;20471;-71
2023/04/28 13:15:00;;;;;;;6.80;2.10;;;;;;;;;;5105982;28;20486;-71
2023/04/28 13:17:26;;;;;;;6.25;2.20;;;;;;;;;;5114220;28;20386;-74
2023/04/28 13:19:51;;;;;;;6.65;2.17;;;;;;;;;;5112887;28;20029;-75
2023/04/28 13:22:17;;;;;;;4.40;2.03;;;;;;;;;;5113876;28;20442;-75
2023/04/28 13:24:42;;;;;;;7.72;2.08;;;;;;;;;;5113838;28;20100;-78
2023/04/28 13:27:08;;;;;;;3.17;1.65;;;;;;;;;;5113678;28;20023;-75
2023/04/28 13:29:35;;;;;;;3.95;2.00;;;;;;;;;;5113921;28;20023;-75
2023/04/28 13:32:01;;;;;;;6.93;2.05;;;;;;;;;;5113447;28;20088;-76
2023/04/28 13:34:26;;;;;;;5.55;2.17;;;;;;;;;;5113119;28;20035;-72
2023/04/28 13:36:53;;;;;;;5.40;2.22;;;;;;;;;;5103306;28;20111;-76
2023/04/28 13:39:20;;;;;;;4.97;2.13;;;;;;;;;;5113709;28;20074;-77
2023/04/28 13:41:48;;;;;;;4.55;1.90;;;;;;;;;;5114210;28;20038;-68
2023/04/28 13:44:13;;;;;;;5.63;2.13;;;;;;;;;;5113886;28;20115;-75
2023/04/28 13:46:39;;;;;;;5.93;2.40;;;;;;;;;;5114039;28;20106;-73
2023/04/28 13:49:04;;;;;;;4.55;2.20;;;;;;;;;;5113610;28;20031;-75
2023/04/28 13:51:31;;;;;;;3.63;2.10;;;;;;;;;;5113813;28;20360;-73
2023/04/28 13:53:57;;;;;;;5.22;2.03;;;;;;;;;;5095414;28;20023;-75
2023/04/28 13:56:23;;;;;;;5.53;2.50;;;;;;;;;;5113613;28;20030;-74
2023/04/28 13:58:48;;;;;;;4.15;2.35;;;;;;;;;;5113896;28;20057;-77
2023/04/28 14:01:14;;;;;;;5.00;2.47;;;;;;;;;;5113893;28;20425;-71
2023/04/28 14:03:40;;;;;;;5.88;2.42;;;;;;;;;;5113219;28;20040;-78
2023/04/28 14:06:06;;;;;;;6.10;2.55;;;;;;;;;;5113544;28;20505;-77
2023/04/28 14:08:31;;;;;;;4.32;2.00;;;;;;;;;;5113193;28;20478;-77
2023/04/28 14:10:57;;;;;;;9.18;2.72;;;;;;;;;;5113395;28;20049;-75
2023/04/28 14:13:23;;;;;;;5.13;2.55;;;;;;;;;;5113194;28;20028;-77
2023/04/28 14:15:54;;;;;;;5.80;2.70;;;;;;;;;;5113396;28;20027;-73
2023/04/28 14:18:20;;;;;;;14.32;3.25;;;;;;;;;;5112722;28;20080;-75
2023/04/28 14:20:46;;;;;;;7.20;2.90;;;;;;;;;;5113463;28;20032;-73
2023/04/28 14:23:11;;;;;;;7.05;2.55;;;;;;;;;;5112675;28;20107;-74
2023/04/28 14:25:37;;;;;;;6.25;2.38;;;;;;;;;;5113437;28;20466;-74
2023/04/28 14:28:03;;;;;;;6.43;3.00;;;;;;;;;;5113173;28;20113;-76
2023/04/28 14:30:28;;;;;;;4.38;2.20;;;;;;;;;;5112907;28;20031;-77
2023/04/28 14:32:54;;;;;;;5.50;2.35;;;;;;;;;;5112697;28;20435;-77